createdAt,value
2019-05-20T00:02:51.483Z,81.70
2019-05-20T00:06:54.631Z,82.20
2019-05-20T00:10:57.619Z,82.60
2019-05-20T00:15:00.614Z,82.80
2019-05-20T00:19:03.638Z,83.00
2019-05-20T00:23:06.639Z,83.90
2019-05-20T00:27:09.636Z,84.00
2019-05-20T00:31:12.623Z,83.90
2019-05-20T00:35:15.620Z,83.50
2019-05-20T00:39:19.451Z,82.90
2019-05-20T00:43:22.450Z,83.00
2019-05-20T00:47:26.579Z,83.10
2019-05-20T00:51:29.648Z,84.10
2019-05-20T00:55:32.689Z,85.30
2019-05-20T00:59:35.697Z,85.40
2019-05-20T01:03:38.698Z,84.80
2019-05-20T01:07:41.692Z,85.20
2019-05-20T01:11:44.694Z,84.80
2019-05-20T01:15:47.679Z,85.00
2019-05-20T01:19:50.678Z,85.40
2019-05-20T01:23:53.679Z,85.70
2019-05-20T01:27:56.672Z,85.50
2019-05-20T01:31:59.683Z,84.80
2019-05-20T01:36:02.811Z,82.90
2019-05-20T01:40:06.419Z,82.50
2019-05-20T01:44:09.538Z,81.80
2019-05-20T01:48:13.724Z,82.70
2019-05-20T01:52:16.695Z,83.30
2019-05-20T01:56:19.711Z,83.30
2019-05-20T02:00:23.114Z,83.70
2019-05-20T02:04:26.152Z,84.10
2019-05-20T02:08:29.168Z,83.40
2019-05-20T02:12:32.246Z,82.70
2019-05-20T02:16:35.255Z,83.90
2019-05-20T02:20:38.269Z,84.60
2019-05-20T02:24:41.256Z,85.00
2019-05-20T02:28:44.391Z,85.20
2019-05-20T02:32:47.363Z,85.60
2019-05-20T02:36:50.357Z,86.70
2019-05-20T02:40:53.367Z,87.20
2019-05-20T02:44:56.367Z,87.00
2019-05-20T02:49:00.626Z,86.30
2019-05-20T02:53:03.643Z,86.10
2019-05-20T02:57:06.638Z,84.90
2019-05-20T03:01:09.866Z,83.90
2019-05-20T03:05:12.980Z,83.50
2019-05-20T03:09:15.984Z,83.80
2019-05-20T03:13:19.039Z,84.50
2019-05-20T03:17:22.450Z,84.00
2019-05-20T03:21:25.436Z,83.30
2019-05-20T03:25:28.444Z,83.50
2019-05-20T03:29:31.439Z,84.40
2019-05-20T03:33:34.436Z,84.10
2019-05-20T03:37:37.428Z,84.40
2019-05-20T03:41:40.454Z,84.60
2019-05-20T03:45:43.509Z,85.70
2019-05-20T03:49:46.609Z,88.50
2019-05-20T03:53:49.611Z,88.70
2019-05-20T03:57:52.610Z,89.00
2019-05-20T04:01:55.707Z,87.90
2019-05-20T04:05:58.682Z,86.80
2019-05-20T04:10:03.456Z,85.50
2019-05-20T04:14:06.454Z,84.30
2019-05-20T04:18:09.797Z,84.30
2019-05-20T04:22:12.918Z,84.60
2019-05-20T04:26:16.413Z,84.50
2019-05-20T04:30:19.617Z,84.40
2019-05-20T04:34:22.916Z,85.40
2019-05-20T04:38:25.929Z,79.30
2019-05-20T04:42:29.010Z,80.60
2019-05-20T04:46:32.235Z,81.70
2019-05-20T04:50:35.738Z,82.30
2019-05-20T04:54:38.732Z,82.90
2019-05-20T04:58:41.732Z,83.50
2019-05-20T05:02:44.764Z,85.00
2019-05-20T05:06:47.771Z,85.70
2019-05-20T05:10:51.176Z,85.40
2019-05-20T05:14:54.227Z,86.20
2019-05-20T05:18:57.198Z,84.90
2019-05-20T05:23:00.182Z,84.70
2019-05-20T05:27:03.195Z,84.20
2019-05-20T05:31:06.182Z,84.20
2019-05-20T05:35:11.382Z,84.80
2019-05-20T05:39:14.389Z,84.60
2019-05-20T05:43:17.416Z,84.70
2019-05-20T05:47:21.448Z,84.80
2019-05-20T05:51:26.317Z,84.30
2019-05-20T05:55:29.348Z,83.70
2019-05-20T05:59:32.350Z,83.70
2019-05-20T06:03:35.377Z,83.10
2019-05-20T06:07:38.415Z,82.90
2019-05-20T06:11:41.465Z,80.80
2019-05-20T06:15:44.577Z,79.70
2019-05-20T06:19:47.570Z,77.20
2019-05-20T06:23:50.583Z,77.00
2019-05-20T06:27:53.592Z,76.20
2019-05-20T06:31:56.560Z,75.80
2019-05-20T06:35:59.660Z,74.90
2019-05-20T06:40:03.557Z,75.00
2019-05-20T06:44:06.687Z,74.10
2019-05-20T06:48:09.788Z,74.30
2019-05-20T06:52:13.967Z,72.60
2019-05-20T06:56:17.007Z,72.30
2019-05-20T07:00:32.092Z,72.30
2019-05-20T07:04:35.101Z,71.40
2019-05-20T07:08:38.070Z,71.60
2019-05-20T07:12:41.956Z,72.50
2019-05-20T07:16:45.270Z,73.80
2019-05-20T07:20:48.270Z,73.30
2019-05-20T07:24:51.275Z,74.30
2019-05-20T07:28:54.300Z,75.50
2019-05-20T07:32:57.385Z,74.70
2019-05-20T07:37:03.712Z,74.00
2019-05-20T07:41:05.288Z,74.40
2019-05-20T07:45:08.790Z,74.90
2019-05-20T07:49:12.255Z,72.80
2019-05-20T07:53:18.018Z,72.10
2019-05-20T07:57:24.025Z,71.20
2019-05-20T08:01:27.018Z,71.90
2019-05-20T08:05:30.024Z,72.50
2019-05-20T08:09:33.007Z,71.70
2019-05-20T08:13:35.986Z,70.20
2019-05-20T08:17:39.015Z,68.70
2019-05-20T08:21:42.020Z,65.50
2019-05-20T08:25:45.019Z,60.80
2019-05-20T08:29:48.027Z,56.40
2019-05-20T08:33:51.042Z,56.20
2019-05-20T08:37:54.042Z,56.20
2019-05-20T08:41:57.058Z,56.30
2019-05-20T08:46:00.095Z,54.60
2019-05-20T08:50:11.259Z,55.90
2019-05-20T08:54:13.426Z,51.60
2019-05-20T08:58:16.437Z,48.20
2019-05-20T09:02:19.543Z,46.70
2019-05-20T09:06:22.888Z,46.20
2019-05-20T09:10:25.880Z,45.20
2019-05-20T09:14:28.873Z,46.80
2019-05-20T09:18:31.922Z,47.80
2019-05-20T09:22:35.034Z,50.00
2019-05-20T09:26:38.054Z,50.60
2019-05-20T09:30:41.167Z,52.60
2019-05-20T09:34:44.214Z,53.70
2019-05-20T09:38:47.231Z,54.70
2019-05-20T09:42:50.226Z,55.60
2019-05-20T09:46:53.276Z,56.00
2019-05-20T09:50:56.252Z,55.80
2019-05-20T09:55:00.622Z,54.80
2019-05-20T09:59:03.631Z,55.20
2019-05-20T10:03:07.660Z,54.90
2019-05-20T10:07:10.859Z,55.70
2019-05-20T10:11:13.970Z,55.70
2019-05-20T10:15:18.699Z,58.70
2019-05-20T10:19:21.692Z,58.80
2019-05-20T10:23:24.848Z,59.50
2019-05-20T10:27:27.929Z,59.60
2019-05-20T10:31:30.946Z,58.90
2019-05-20T10:35:34.016Z,58.70
2019-05-20T10:39:37.023Z,59.70
2019-05-20T10:43:40.021Z,60.80
2019-05-20T10:47:43.162Z,61.50
2019-05-20T10:51:46.272Z,61.80
2019-05-20T10:55:49.933Z,61.50
2019-05-20T10:59:53.004Z,61.20
2019-05-20T11:03:56.009Z,62.60
2019-05-20T11:07:59.101Z,62.10
2019-05-20T11:12:02.202Z,62.50
2019-05-20T11:16:05.218Z,61.60
2019-05-20T11:20:09.002Z,60.10
2019-05-20T11:24:12.020Z,59.10
2019-05-20T11:28:15.018Z,59.40
2019-05-20T11:32:18.028Z,59.80
2019-05-20T11:36:21.040Z,59.00
2019-05-20T11:40:24.042Z,57.90
2019-05-20T11:44:27.055Z,57.40
2019-05-20T11:48:30.039Z,56.50
2019-05-20T11:52:33.071Z,56.70
2019-05-20T11:56:37.909Z,56.00
2019-05-20T12:00:41.076Z,56.60
2019-05-20T12:04:44.076Z,57.20
2019-05-20T12:08:47.246Z,60.70
2019-05-20T12:12:50.367Z,62.60
2019-05-20T12:16:53.367Z,62.20
2019-05-20T12:20:56.608Z,63.70
2019-05-20T12:25:00.050Z,64.10
2019-05-20T12:29:03.148Z,64.40
2019-05-20T12:33:18.655Z,65.70
2019-05-20T12:37:11.212Z,66.80
2019-05-20T12:41:14.230Z,68.70
2019-05-20T12:45:17.633Z,69.00
2019-05-20T12:49:20.739Z,69.80
2019-05-20T12:53:23.775Z,70.40
2019-05-20T12:57:27.626Z,70.90
2019-05-20T13:01:30.844Z,70.10
2019-05-20T13:05:33.846Z,71.30
2019-05-20T13:09:36.915Z,71.70
2019-05-20T13:13:39.899Z,70.60
2019-05-20T13:17:45.084Z,69.50
2019-05-20T13:21:47.957Z,68.80
2019-05-20T13:25:50.960Z,69.70
2019-05-20T13:29:54.026Z,70.10
2019-05-20T13:33:57.035Z,71.30
2019-05-20T13:38:00.063Z,72.00
2019-05-20T13:42:03.166Z,73.20
2019-05-20T13:46:06.160Z,72.90
2019-05-20T13:50:09.674Z,72.30
2019-05-20T13:54:12.715Z,72.60
2019-05-20T13:58:17.240Z,72.90
2019-05-20T14:02:20.310Z,72.10
2019-05-20T14:06:23.345Z,73.40
2019-05-20T14:10:26.347Z,75.00
2019-05-20T14:14:29.352Z,75.50
2019-05-20T14:18:32.404Z,76.40
2019-05-20T14:22:35.499Z,77.40
2019-05-20T14:26:38.561Z,78.30
2019-05-20T14:30:41.658Z,80.90
2019-05-20T14:34:44.729Z,81.50
2019-05-20T14:38:47.978Z,79.60
2019-05-20T14:42:51.071Z,78.10
2019-05-20T14:46:54.072Z,77.20
2019-05-20T14:50:57.095Z,77.60
2019-05-20T14:55:00.118Z,77.00
2019-05-20T14:59:03.344Z,77.40
2019-05-20T15:03:06.430Z,77.30
2019-05-20T15:07:09.608Z,79.00
2019-05-20T15:11:12.618Z,79.90
2019-05-20T15:15:16.013Z,81.70
2019-05-20T15:19:19.114Z,82.20
2019-05-20T15:23:22.127Z,83.40
2019-05-20T15:27:25.131Z,83.60
2019-05-20T15:31:34.035Z,83.80
2019-05-20T15:35:37.138Z,83.90
2019-05-20T15:39:40.159Z,84.50
2019-05-20T15:43:43.146Z,85.20
2019-05-20T15:47:46.447Z,85.50
2019-05-20T15:51:49.438Z,86.10
2019-05-20T15:55:52.458Z,86.50
2019-05-20T15:59:57.640Z,85.90
2019-05-20T16:04:00.637Z,85.60
2019-05-20T16:08:03.686Z,86.30
2019-05-20T16:12:06.805Z,85.80
2019-05-20T16:16:12.975Z,85.30
2019-05-20T16:24:19.794Z,85.70
2019-05-20T16:28:22.832Z,85.50
2019-05-20T16:32:25.907Z,85.40
2019-05-20T16:36:30.927Z,84.80
2019-05-20T16:40:34.636Z,85.30
2019-05-20T16:44:37.922Z,84.90
2019-05-20T16:48:41.117Z,84.70
2019-05-20T16:52:44.129Z,83.90
2019-05-20T16:56:47.672Z,84.30
2019-05-20T17:00:53.516Z,84.70
2019-05-20T17:04:56.794Z,84.50
2019-05-20T17:08:59.831Z,84.50
2019-05-20T17:13:03.044Z,84.60
2019-05-20T17:17:06.095Z,84.40
2019-05-20T17:21:09.132Z,85.30
2019-05-20T17:25:12.457Z,85.80
2019-05-20T17:29:15.476Z,85.90
2019-05-20T17:33:18.492Z,85.90
2019-05-20T17:37:21.509Z,86.00
2019-05-20T17:41:25.732Z,86.20
2019-05-20T17:45:28.937Z,86.60
2019-05-20T17:49:32.172Z,87.40
2019-05-20T17:53:35.349Z,87.00
2019-05-20T17:57:38.390Z,86.90
2019-05-20T18:01:43.263Z,86.90
2019-05-20T18:05:46.376Z,87.30
2019-05-20T18:09:51.295Z,87.40
2019-05-20T18:13:55.504Z,87.60
2019-05-20T18:18:00.910Z,87.10
2019-05-20T18:22:03.905Z,87.40
2019-05-20T18:26:06.931Z,87.70
2019-05-20T18:30:10.440Z,88.10
2019-05-20T18:34:13.611Z,88.20
2019-05-20T18:38:16.608Z,88.70
2019-05-20T18:42:19.632Z,88.60
2019-05-20T18:46:22.664Z,88.90
2019-05-20T18:50:25.748Z,89.30
2019-05-20T18:54:28.888Z,89.90
2019-05-20T18:58:31.898Z,90.30
2019-05-20T19:02:36.244Z,90.30
2019-05-20T19:06:39.300Z,90.60
2019-05-20T19:10:42.315Z,90.70
2019-05-20T19:14:45.319Z,90.70
2019-05-20T19:18:48.448Z,91.10
2019-05-20T19:22:51.492Z,91.30
2019-05-20T19:26:54.992Z,91.50
2019-05-20T19:30:58.070Z,91.60
2019-05-20T19:35:01.977Z,91.60
2019-05-20T19:39:06.720Z,91.80
2019-05-20T19:43:09.723Z,92.10
2019-05-20T19:47:12.767Z,92.30
2019-05-20T19:51:15.807Z,92.40
2019-05-20T19:55:19.343Z,92.60
2019-05-20T19:59:22.529Z,92.90
2019-05-20T20:03:27.643Z,92.70
2019-05-20T20:07:30.627Z,92.70
2019-05-20T20:11:33.654Z,92.60
2019-05-20T20:15:36.683Z,92.70
2019-05-20T20:19:39.705Z,92.60
2019-05-20T20:23:42.733Z,92.70
2019-05-20T20:27:45.782Z,93.20
2019-05-20T20:31:48.921Z,93.00
2019-05-20T20:35:51.963Z,92.90
2019-05-20T20:39:55.006Z,93.20
2019-05-20T20:43:58.010Z,93.10
2019-05-20T20:48:01.093Z,93.00
2019-05-20T20:52:04.239Z,93.60
2019-05-20T20:56:07.240Z,93.40
2019-05-20T21:00:11.258Z,93.30
2019-05-20T21:04:15.352Z,93.30
2019-05-20T21:08:18.424Z,93.50
2019-05-20T21:12:21.477Z,93.40
2019-05-20T21:16:24.564Z,93.60
2019-05-20T21:20:27.582Z,93.50
2019-05-20T21:24:30.597Z,93.60
2019-05-20T21:28:33.669Z,93.70
2019-05-20T21:32:36.698Z,93.40
2019-05-20T21:36:47.781Z,93.30
2019-05-20T21:40:44.788Z,93.60
2019-05-20T21:44:47.881Z,93.80
2019-05-20T21:48:51.203Z,93.60
2019-05-20T21:52:54.328Z,93.60
2019-05-20T21:56:57.584Z,93.50
2019-05-20T22:01:00.693Z,93.70
2019-05-20T22:05:04.714Z,93.50
2019-05-20T22:09:08.026Z,93.80
2019-05-20T22:13:11.082Z,93.80
2019-05-20T22:17:14.121Z,93.80
2019-05-20T22:21:19.233Z,93.80
2019-05-20T22:25:22.285Z,93.90
2019-05-20T22:29:25.372Z,93.80
2019-05-20T22:33:40.205Z,93.80
2019-05-20T22:37:33.340Z,93.80
2019-05-20T22:41:36.359Z,93.70
2019-05-20T22:45:39.461Z,94.10
2019-05-20T22:49:42.495Z,94.10
2019-05-20T22:53:45.503Z,94.20
2019-05-20T22:57:48.529Z,94.20
2019-05-20T23:01:51.617Z,94.30
2019-05-20T23:05:55.618Z,94.10
2019-05-20T23:09:58.718Z,94.10
2019-05-20T23:14:01.937Z,94.40
2019-05-20T23:18:05.343Z,94.70
2019-05-20T23:22:08.454Z,94.60
2019-05-20T23:26:11.578Z,94.80
2019-05-20T23:30:14.940Z,94.90
2019-05-20T23:34:18.003Z,95.10
2019-05-20T23:38:21.515Z,95.10
2019-05-20T23:42:24.577Z,94.90
2019-05-20T23:46:27.589Z,95.00
2019-05-20T23:50:30.596Z,95.10
2019-05-20T23:54:33.612Z,95.20
2019-05-20T23:58:36.641Z,95.30
